Twin Rock, Colorado
Current Conditions -  °F | °C
As of 7:34 AM on Friday 28 Nov 2014 (Local Time) from K4BM Reporting Station
Clear Clear  
Wind Chill: 24°   Ceiling: Unl
Heat Index: 34°   Visibility: 10mi
Dew Point: -4°   Wind: 15mph
Humidity: 20%   Direction: 260°W
Pressure: 30.24"   Gusts: 24mph
Location:  38.8466°N, 105.301°W
Report Text: K4BM 281434Z AUTO 26013G21KT 10SM CLR 01/M20 A3024 RMK AO2
Loading
Personal Weather Stations






























Interactive Weather Map New forecast layout! Learn more

10-Day Weather Forecast

Advertisements
Track Severe Weather on mobile